Time;durP1;ratioP1;P1;durP2;ratioP2;P2;SDS_P1;SDS_P2;PMS_P1;PMS_P2;Temp;Humidity;BMP_temperature;BMP_pressure;BME280_temperature;BME280_humidity;BME280_pressure;Samples;Min_cycle;Max_cycle;Signal;HPM_P1;HPM_P2
2022/09/30 00:08:23;;;;;;;0.30;0.30;;;;;;;15.21;72.35;99686.28;18495095;32;20096;-56
2022/09/30 00:18:27;;;;;;;0.40;0.40;;;;;;;15.13;72.76;99675.19;18494511;32;20154;-56
2022/09/30 00:28:31;;;;;;;0.40;0.40;;;;;;;14.95;74.03;99660.84;18493824;32;20660;-56
2022/09/30 00:38:34;;;;;;;0.82;0.82;;;;;;;15.35;72.58;99670.03;18500592;32;20508;-56
2022/09/30 00:48:39;;;;;;;2.92;1.08;;;;;;;15.48;71.91;99649.44;18501102;32;20361;-55
2022/09/30 00:58:46;;;;;;;0.30;0.30;;;;;;;15.51;71.70;99637.97;18501854;32;20101;-56
2022/09/30 01:08:52;;;;;;;0.70;0.70;;;;;;;15.61;71.55;99642.00;18501922;32;20112;-56
2022/09/30 01:19:04;;;;;;;0.60;0.50;;;;;;;15.63;71.45;99632.25;18500585;32;20099;-56
2022/09/30 01:29:43;;;;;;;0.22;0.22;;;;;;;15.65;71.54;99624.34;18500482;32;20088;-56
2022/09/30 01:39:53;;;;;;;0.62;0.52;;;;;;;15.59;71.99;99614.88;18500061;32;20115;-56
2022/09/30 01:50:00;;;;;;;0.45;0.45;;;;;;;15.64;71.86;99626.09;18499661;32;20429;-56
2022/09/30 02:00:07;;;;;;;0.82;0.82;;;;;;;15.77;71.60;99623.88;18435249;32;20089;-56
2022/09/30 02:10:14;;;;;;;1.12;1.02;;;;;;;15.71;71.68;99631.12;18434849;32;20134;-56
2022/09/30 02:20:22;;;;;;;0.40;0.40;;;;;;;15.52;72.52;99624.78;18435649;32;20093;-56
2022/09/30 02:30:26;;;;;;;0.80;0.47;;;;;;;15.68;72.07;99604.03;18434138;32;20085;-56
2022/09/30 02:40:35;;;;;;;0.62;0.35;;;;;;;15.77;71.77;99605.47;18434558;32;20130;-56
2022/09/30 02:50:44;;;;;;;0.50;0.50;;;;;;;15.92;71.38;99604.06;18437241;32;20089;-55
2022/09/30 03:00:49;;;;;;;1.02;0.60;;;;;;;16.02;71.10;99622.16;18497977;32;20154;-55
2022/09/30 03:10:52;;;;;;;0.20;0.20;;;;;;;15.73;72.62;99647.72;18497087;32;20092;-55
2022/09/30 03:21:09;;;;;;;0.30;0.30;;;;;;;15.92;72.52;99600.59;18496981;32;20100;-55
2022/09/30 03:31:17;;;;;;;0.50;0.50;;;;;;;15.81;74.34;99612.34;18496811;32;20092;-56
2022/09/30 03:41:27;;;;;;;0.60;0.60;;;;;;;16.19;72.63;99593.41;18496552;32;20097;-56
2022/09/30 03:51:30;;;;;;;0.30;0.30;;;;;;;16.20;73.39;99604.81;18495758;32;20222;-56
2022/09/30 04:01:34;;;;;;;0.30;0.30;;;;;;;16.35;72.97;99614.72;18495544;32;20103;-56
2022/09/30 04:11:38;;;;;;;0.30;0.30;;;;;;;16.47;72.14;99617.84;18493729;32;20102;-56
2022/09/30 04:21:42;;;;;;;0.50;0.50;;;;;;;16.39;72.68;99588.31;18495540;32;20103;-55
2022/09/30 04:31:45;;;;;;;0.25;0.25;;;;;;;16.48;72.20;99595.84;18494200;32;20096;-56
2022/09/30 04:41:52;;;;;;;0.47;0.40;;;;;;;15.74;76.93;99583.66;18493460;32;20080;-56
2022/09/30 04:51:56;;;;;;;0.45;0.45;;;;;;;16.43;73.71;99603.91;18492560;32;20127;-56
2022/09/30 05:02:01;;;;;;;0.20;0.20;;;;;;;16.66;72.84;99607.41;18485994;32;20100;-56
2022/09/30 05:12:04;;;;;;;0.40;0.40;;;;;;;16.61;73.39;99623.41;18490999;32;20106;-55
2022/09/30 05:22:09;;;;;;;0.20;0.20;;;;;;;16.78;72.52;99622.72;18496573;32;20120;-56
2022/09/30 05:32:12;;;;;;;0.52;0.40;;;;;;;16.91;72.25;99648.59;18500023;32;20111;-56
2022/09/30 05:42:16;;;;;;;0.30;0.30;;;;;;;17.01;72.17;99655.25;18499681;32;20140;-55
2022/09/30 05:52:21;;;;;;;0.65;0.65;;;;;;;17.01;72.61;99659.63;18499854;32;20101;-56
2022/09/30 06:02:25;;;;;;;0.20;0.20;;;;;;;17.30;72.02;99661.06;18495214;32;20110;-56
2022/09/30 06:12:28;;;;;;;0.30;0.30;;;;;;;17.42;72.27;99667.63;18490644;32;20107;-56
2022/09/30 06:22:35;;;;;;;0.20;0.20;;;;;;;17.54;72.01;99663.56;18435844;32;20090;-56
2022/09/30 06:32:38;;;;;;;0.30;0.30;;;;;;;17.62;71.85;99671.19;18443113;32;20097;-56
2022/09/30 06:42:43;;;;;;;0.73;0.73;;;;;;;17.61;71.89;99674.75;18433532;32;20108;-56
2022/09/30 06:52:47;;;;;;;0.20;0.20;;;;;;;17.51;72.16;99676.91;18433442;32;20140;-57
2022/09/30 07:02:52;;;;;;;0.20;0.20;;;;;;;17.54;72.13;99684.69;18433080;32;20104;-56
2022/09/30 07:12:55;;;;;;;1.02;0.73;;;;;;;17.44;72.51;99688.63;18419599;32;20150;-56
2022/09/30 07:23:00;;;;;;;0.20;0.20;;;;;;;17.50;72.50;99700.72;18466403;32;20088;-56
2022/09/30 07:33:04;;;;;;;0.40;0.40;;;;;;;17.46;72.97;99713.22;18497907;32;20092;-56
2022/09/30 07:43:08;;;;;;;0.37;0.37;;;;;;;17.67;72.26;99721.97;18496259;32;20115;-57
2022/09/30 07:53:11;;;;;;;0.20;0.20;;;;;;;17.58;72.81;99738.19;18495677;32;20124;-56
2022/09/30 08:03:16;;;;;;;0.30;0.30;;;;;;;17.69;72.59;99746.53;18494770;32;20096;-56
2022/09/30 08:13:19;;;;;;;0.30;0.30;;;;;;;17.80;72.24;99753.97;18493789;32;20096;-56
2022/09/30 08:23:24;;;;;;;1.80;0.52;;;;;;;17.88;72.16;99765.06;18493225;32;20101;-56
2022/09/30 08:33:28;;;;;;;0.28;0.28;;;;;;;17.92;72.33;99779.00;18493798;32;20700;-56
2022/09/30 08:43:39;;;;;;;0.20;0.20;;;;;;;18.01;72.25;99783.03;18490633;32;20133;-57
2022/09/30 08:53:44;;;;;;;0.17;0.17;;;;;;;18.13;72.04;99798.41;18494517;32;20186;-56
2022/09/30 09:03:48;;;;;;;2.50;1.48;;;;;;;18.14;72.47;99804.50;18460612;32;20662;-56
2022/09/30 09:13:56;;;;;;;5.50;3.15;;;;;;;18.26;72.53;99818.97;18434574;32;20111;-57
2022/09/30 09:24:02;;;;;;;3.90;1.75;;;;;;;18.42;72.17;99819.16;18434264;32;20488;-56
2022/09/30 09:34:10;;;;;;;2.05;1.10;;;;;;;18.30;72.25;99833.75;18421325;32;20105;-56
2022/09/30 09:44:21;;;;;;;1.23;0.80;;;;;;;18.43;72.17;99842.00;18435030;32;20123;-56
2022/09/30 09:54:29;;;;;;;0.20;0.20;;;;;;;18.43;73.00;99847.28;18435026;32;20104;-56
2022/09/30 10:04:34;;;;;;;0.20;0.20;;;;;;;18.64;72.80;99855.19;18434670;32;20150;-56
2022/09/30 10:14:44;;;;;;;0.52;0.50;;;;;;;18.54;72.42;99874.13;18434095;32;20077;-56
2022/09/30 10:24:49;;;;;;;0.13;0.13;;;;;;;19.01;73.05;99874.72;18435104;32;20111;-56
2022/09/30 10:34:56;;;;;;;0.62;0.62;;;;;;;19.50;72.76;99860.97;18440618;32;20105;-56
2022/09/30 10:45:05;;;;;;;0.20;0.20;;;;;;;20.35;69.73;99860.41;18432797;32;20093;-56
2022/09/30 10:55:09;;;;;;;0.17;0.17;;;;;;;20.38;66.61;99884.91;18459866;32;20111;-56
2022/09/30 11:05:23;;;;;;;0.10;0.10;;;;;;;20.39;66.68;99909.66;18432673;32;20504;-56
2022/09/30 11:15:30;;;;;;;0.22;0.22;;;;;;;20.19;67.45;99911.53;18430406;32;20133;-57
2022/09/30 11:25:49;;;;;;;0.10;0.10;;;;;;;20.12;68.24;99951.66;18429337;32;20077;-56
2022/09/30 11:35:56;;;;;;;0.10;0.10;;;;;;;20.14;66.58;99963.03;18432458;32;20136;-56
2022/09/30 11:46:28;;;;;;;0.28;0.28;;;;;;;19.75;67.87;99980.72;18433107;32;20721;-56
2022/09/30 11:56:39;;;;;;;0.85;0.55;;;;;;;20.06;67.50;99996.06;18155935;32;20114;-56
2022/09/30 12:06:47;;;;;;;0.20;0.20;;;;;;;20.06;68.65;100019.03;18156150;32;20165;-56
2022/09/30 12:16:51;;;;;;;0.10;0.10;;;;;;;20.33;67.25;100029.22;18167075;32;20122;-56
2022/09/30 12:26:56;;;;;;;0.00;0.00;;;;;;;20.68;66.55;100050.47;18216988;32;20121;-56
2022/09/30 12:37:14;;;;;;;0.20;0.20;;;;;;;20.89;63.83;100059.19;18437469;32;20129;-56
2022/09/30 12:47:30;;;;;;;0.10;0.10;;;;;;;21.24;63.68;100076.00;18438172;32;20107;-56
2022/09/30 12:57:38;;;;;;;0.10;0.10;;;;;;;21.21;60.49;100085.00;18436506;32;20151;-56
2022/09/30 13:08:10;;;;;;;0.57;0.25;;;;;;;21.02;61.05;100098.34;18436713;32;20078;-56
2022/09/30 13:18:50;;;;;;;0.10;0.10;;;;;;;20.59;62.10;100126.06;18436143;32;20112;-56
2022/09/30 13:29:15;;;;;;;0.30;0.30;;;;;;;20.41;62.27;100138.38;18435792;32;20242;-56
2022/09/30 13:39:23;;;;;;;0.00;0.00;;;;;;;21.04;60.14;100126.53;18420861;32;20101;-56
2022/09/30 13:49:40;;;;;;;0.10;0.10;;;;;;;20.91;59.29;100128.94;18434975;32;20088;-56
2022/09/30 14:00:00;;;;;;;0.10;0.10;;;;;;;20.70;59.94;100167.09;18434620;32;20359;-56
2022/09/30 14:10:15;;;;;;;0.10;0.10;;;;;;;20.95;58.06;100173.88;18434853;32;20396;-56
2022/09/30 14:20:30;;;;;;;0.10;0.10;;;;;;;20.98;58.70;100182.53;18434190;32;20163;-56
2022/09/30 14:30:38;;;;;;;0.10;0.10;;;;;;;21.12;57.19;100183.69;18434186;32;20107;-56
2022/09/30 14:40:52;;;;;;;0.10;0.10;;;;;;;20.61;58.50;100177.22;18433729;32;20434;-56
2022/09/30 14:50:58;;;;;;;0.10;0.10;;;;;;;20.48;59.32;100187.53;18432482;32;20093;-56
2022/09/30 15:01:05;;;;;;;0.10;0.10;;;;;;;20.26;61.17;100202.75;18433415;32;20089;-56
2022/09/30 15:11:09;;;;;;;0.10;0.10;;;;;;;20.27;59.97;100204.47;18434378;32;20436;-56
2022/09/30 15:21:16;;;;;;;0.00;0.00;;;;;;;20.33;59.19;100204.16;18432682;32;20089;-56
2022/09/30 15:31:22;;;;;;;0.20;0.20;;;;;;;20.09;57.33;100230.87;18418307;32;20089;-56
2022/09/30 15:41:27;;;;;;;0.20;0.20;;;;;;;19.66;60.22;100233.56;18427436;32;152434;-56
2022/09/30 15:51:36;;;;;;;0.10;0.10;;;;;;;19.36;61.90;100244.53;18431744;32;20127;-56
2022/09/30 16:01:42;;;;;;;0.10;0.10;;;;;;;19.06;62.75;100258.06;18431433;32;20107;-56
2022/09/30 16:11:52;;;;;;;0.20;0.20;;;;;;;18.71;64.18;100275.25;18432206;32;20135;-56
2022/09/30 16:21:57;;;;;;;0.53;0.53;;;;;;;18.46;64.67;100287.66;18430285;32;20088;-56
2022/09/30 16:32:01;;;;;;;0.10;0.10;;;;;;;18.23;65.30;100294.66;18415387;32;20097;-56
2022/09/30 16:42:05;;;;;;;0.22;0.22;;;;;;;17.99;66.35;100287.50;18430213;32;20419;-56
2022/09/30 16:52:10;;;;;;;0.37;0.37;;;;;;;17.77;67.35;100315.53;18428294;32;20676;-56
2022/09/30 17:02:15;;;;;;;0.30;0.30;;;;;;;17.60;68.05;100331.03;18427793;32;20497;-56
2022/09/30 17:12:18;;;;;;;0.28;0.28;;;;;;;17.57;68.23;100343.47;18427552;32;20158;-56
2022/09/30 17:22:23;;;;;;;0.55;0.55;;;;;;;17.66;68.21;100324.69;18435954;32;20138;-56
2022/09/30 17:32:26;;;;;;;0.10;0.10;;;;;;;17.51;68.39;100352.44;18435563;32;20141;-56
2022/09/30 17:52:50;;;;;;;0.20;0.20;;;;;;;17.20;68.51;100354.25;18413105;32;20069;-56
2022/09/30 18:02:55;;;;;;;0.40;0.40;;;;;;;17.03;68.29;100354.78;18420345;32;20093;-56
2022/09/30 18:12:58;;;;;;;0.80;0.37;;;;;;;16.68;68.60;100361.91;18434385;32;20097;-56
2022/09/30 18:23:03;;;;;;;0.30;0.10;;;;;;;16.48;68.63;100375.66;18435302;32;20100;-56
2022/09/30 18:33:06;;;;;;;0.85;0.62;;;;;;;16.25;68.79;100400.81;18432712;32;20141;-56
2022/09/30 18:43:12;;;;;;;0.30;0.30;;;;;;;16.11;68.50;100409.06;18419413;32;20089;-56
2022/09/30 18:53:16;;;;;;;0.20;0.20;;;;;;;15.92;68.62;100385.81;18433170;32;20439;-56
2022/09/30 19:03:21;;;;;;;0.37;0.37;;;;;;;15.77;69.74;100409.87;18433024;32;20400;-56
2022/09/30 19:13:26;;;;;;;0.40;0.40;;;;;;;15.79;69.66;100437.91;18432959;32;20457;-58
2022/09/30 19:23:32;;;;;;;0.30;0.30;;;;;;;15.61;69.98;100427.78;18432985;32;20153;-56
2022/09/30 19:33:36;;;;;;;0.20;0.20;;;;;;;15.57;70.56;100416.47;18432468;32;20144;-56
2022/09/30 19:43:52;;;;;;;1.10;0.40;;;;;;;15.82;69.92;100432.53;18432852;32;20093;-56
2022/09/30 19:53:56;;;;;;;0.30;0.30;;;;;;;15.77;70.42;100425.66;18431583;32;20096;-56
2022/09/30 20:04:11;;;;;;;0.45;0.45;;;;;;;15.83;70.60;100462.34;18431256;32;20097;-56
2022/09/30 20:24:36;;;;;;;0.30;0.30;;;;;;;15.97;71.28;100488.37;18430015;32;20388;-56
2022/09/30 20:34:40;;;;;;;0.32;0.32;;;;;;;15.75;72.71;100461.69;18430306;32;20096;-56
2022/09/30 20:44:45;;;;;;;0.30;0.30;;;;;;;16.15;71.16;100470.44;18429203;32;20394;-56
2022/09/30 20:54:48;;;;;;;0.75;0.75;;;;;;;15.97;72.24;100461.22;18421692;32;20092;-55
2022/09/30 21:04:52;;;;;;;0.47;0.47;;;;;;;16.28;71.66;100449.91;18436622;32;20121;-56
2022/09/30 21:14:56;;;;;;;0.30;0.30;;;;;;;16.28;71.43;100437.63;18437441;32;20093;-56
2022/09/30 21:25:01;;;;;;;0.43;0.43;;;;;;;16.39;71.19;100432.06;18435938;32;20123;-56
2022/09/30 21:35:06;;;;;;;0.68;0.68;;;;;;;16.32;71.69;100425.25;18436893;32;20092;-56
2022/09/30 21:45:11;;;;;;;0.28;0.28;;;;;;;16.35;71.79;100430.44;18435477;32;20093;-56
2022/09/30 21:55:14;;;;;;;0.30;0.30;;;;;;;16.52;71.30;100432.63;18436063;32;20389;-56
2022/09/30 22:05:19;;;;;;;1.25;0.62;;;;;;;16.40;71.71;100454.88;18435441;32;20228;-56
2022/09/30 22:15:22;;;;;;;1.45;0.80;;;;;;;16.46;71.69;100488.97;18434435;32;20179;-56
2022/09/30 22:25:29;;;;;;;0.20;0.20;;;;;;;16.40;72.22;100460.13;18434257;32;20088;-56
2022/09/30 22:46:02;;;;;;;1.73;1.12;;;;;;;16.54;71.72;100436.06;18434250;32;20361;-56
2022/09/30 22:56:05;;;;;;;0.40;0.40;;;;;;;16.59;71.72;100401.69;18433536;32;20093;-56
2022/09/30 23:06:10;;;;;;;0.30;0.30;;;;;;;16.64;71.45;100424.38;18433247;32;20133;-56
2022/09/30 23:16:14;;;;;;;0.22;0.22;;;;;;;16.60;71.61;100424.53;18432033;32;20132;-56
2022/09/30 23:26:20;;;;;;;0.60;0.60;;;;;;;16.53;71.78;100420.31;18432784;32;20097;-56
2022/09/30 23:36:28;;;;;;;0.68;0.68;;;;;;;16.40;72.28;100415.34;18432379;32;20103;-56
2022/09/30 23:46:32;;;;;;;0.32;0.32;;;;;;;16.56;71.57;100412.31;18418598;32;20428;-56
2022/09/30 23:56:36;;;;;;;0.40;0.40;;;;;;;16.61;71.43;100410.44;18431175;32;20097;-56
